Time;durP1;ratioP1;P1;durP2;ratioP2;P2;SDS_P1;SDS_P2;PMS_P1;PMS_P2;Temp;Humidity;BMP_temperature;BMP_pressure;BME280_temperature;BME280_humidity;BME280_pressure;Samples;Min_cycle;Max_cycle;Signal;HPM_P1;HPM_P2
2022/11/12 00:00:52;;;;;;;0.30;0.30;;;6.70;99.90;;;;;;5036063;28;20222;-69
2022/11/12 00:03:18;;;;;;;1.23;1.15;;;7.10;99.90;;;;;;5035965;28;20794;-69
2022/11/12 00:05:44;;;;;;;0.30;0.30;;;6.70;99.90;;;;;;5036194;28;20621;-67
2022/11/12 00:08:10;;;;;;;0.40;0.40;;;6.80;99.90;;;;;;5036177;28;20175;-68
2022/11/12 00:10:36;;;;;;;0.37;0.37;;;6.70;99.90;;;;;;5036372;28;20225;-69
2022/11/12 00:13:01;;;;;;;0.40;0.40;;;6.90;99.90;;;;;;5035493;28;20171;-69
2022/11/12 00:15:27;;;;;;;0.83;0.83;;;6.60;99.90;;;;;;5036012;28;20242;-69
2022/11/12 00:17:53;;;;;;;0.40;0.40;;;6.60;99.90;;;;;;5035844;28;20173;-69
2022/11/12 00:20:19;;;;;;;0.60;0.60;;;6.50;99.90;;;;;;5035862;28;20458;-68
2022/11/12 00:22:45;;;;;;;0.40;0.40;;;6.40;99.90;;;;;;5035906;28;20190;-68
2022/11/12 00:25:10;;;;;;;0.30;0.30;;;6.50;99.90;;;;;;5035622;28;20402;-69
2022/11/12 00:27:36;;;;;;;0.30;0.30;;;6.70;99.90;;;;;;5035376;28;20172;-69
2022/11/12 00:30:03;;;;;;;0.30;0.30;;;6.20;99.90;;;;;;5035627;28;20193;-68
2022/11/12 00:32:29;;;;;;;0.40;0.40;;;6.40;99.90;;;;;;5034766;28;20175;-67
2022/11/12 00:34:55;;;;;;;0.40;0.40;;;6.40;99.90;;;;;;5035333;28;20693;-66
2022/11/12 00:37:22;;;;;;;0.40;0.40;;;6.40;99.90;;;;;;5035700;28;20263;-69
2022/11/12 00:39:48;;;;;;;0.30;0.30;;;6.40;99.90;;;;;;5035151;28;20208;-68
2022/11/12 00:42:13;;;;;;;0.30;0.30;;;6.50;99.90;;;;;;5035339;28;20180;-67
2022/11/12 00:44:39;;;;;;;1.23;1.23;;;6.60;99.90;;;;;;5035110;28;20174;-69
2022/11/12 00:47:04;;;;;;;0.40;0.40;;;7.10;99.90;;;;;;5035328;28;20173;-69
2022/11/12 00:49:30;;;;;;;0.30;0.30;;;6.60;99.90;;;;;;5034868;28;20566;-67
2022/11/12 00:51:56;;;;;;;0.30;0.30;;;6.70;99.90;;;;;;5035505;28;20178;-69
2022/11/12 00:54:21;;;;;;;0.40;0.40;;;6.30;99.90;;;;;;5034800;28;20653;-69
2022/11/12 00:56:47;;;;;;;0.40;0.40;;;6.50;99.90;;;;;;5034879;28;20249;-69
2022/11/12 00:59:13;;;;;;;0.30;0.30;;;6.50;99.90;;;;;;5034974;28;20676;-68
2022/11/12 01:01:40;;;;;;;0.40;0.40;;;6.50;99.90;;;;;;5035016;28;20203;-68
2022/11/12 01:04:06;;;;;;;0.30;0.30;;;6.50;99.90;;;;;;5034475;28;20168;-69
2022/11/12 01:06:32;;;;;;;0.30;0.30;;;6.50;99.90;;;;;;5035175;28;20632;-69
2022/11/12 01:08:57;;;;;;;0.40;0.40;;;6.00;99.90;;;;;;5035188;28;20191;-68
2022/11/12 01:11:26;;;;;;;0.40;0.40;;;6.50;99.90;;;;;;5035022;28;20671;-69
2022/11/12 01:14:00;;;;;;;0.30;0.30;;;6.40;99.90;;;;;;5034283;28;20175;-69
2022/11/12 01:16:29;;;;;;;0.70;0.70;;;6.60;99.90;;;;;;5034960;28;20240;-70
2022/11/12 01:19:00;;;;;;;0.45;0.45;;;6.40;99.90;;;;;;5034745;28;20192;-69
2022/11/12 01:21:29;;;;;;;0.40;0.40;;;6.30;99.90;;;;;;5034210;28;20193;-69
2022/11/12 01:23:57;;;;;;;0.40;0.40;;;6.30;99.90;;;;;;5034094;28;20349;-68
2022/11/12 01:26:23;;;;;;;0.40;0.40;;;6.40;99.90;;;;;;5034451;28;20167;-68
2022/11/12 01:28:49;;;;;;;0.63;0.63;;;6.40;99.90;;;;;;5034283;28;20187;-68
2022/11/12 01:31:22;;;;;;;0.40;0.40;;;6.50;99.90;;;;;;5034627;28;20229;-69
2022/11/12 01:33:52;;;;;;;0.60;0.60;;;6.50;99.90;;;;;;5034250;28;20176;-67
2022/11/12 01:36:19;;;;;;;0.40;0.40;;;6.40;99.90;;;;;;5034112;28;20155;-68
2022/11/12 01:38:45;;;;;;;0.40;0.40;;;6.40;99.90;;;;;;5033996;28;20625;-68
2022/11/12 01:41:15;;;;;;;0.40;0.40;;;6.30;99.90;;;;;;5034217;28;20191;-68
2022/11/12 01:43:40;;;;;;;1.10;0.77;;;6.50;99.90;;;;;;5033692;28;20653;-67
2022/11/12 01:46:33;;;;;;;0.40;0.40;;;6.50;99.90;;;;;;5034324;28;20182;-68
2022/11/12 01:49:03;;;;;;;0.30;0.30;;;6.50;99.90;;;;;;5013235;28;20210;-67
2022/11/12 01:51:36;;;;;;;0.30;0.30;;;6.90;99.90;;;;;;5034062;28;20171;-68
2022/11/12 01:54:07;;;;;;;0.32;0.32;;;7.00;99.90;;;;;;5033677;28;20172;-70
2022/11/12 01:56:33;;;;;;;0.35;0.35;;;6.60;99.90;;;;;;5034054;28;20557;-68
2022/11/12 01:59:03;;;;;;;0.40;0.40;;;6.70;99.90;;;;;;5034307;28;20195;-69
2022/11/12 02:01:29;;;;;;;0.30;0.30;;;6.20;99.90;;;;;;5033719;28;20204;-69
2022/11/12 02:03:56;;;;;;;0.40;0.40;;;6.60;99.90;;;;;;5033720;28;20188;-69
2022/11/12 02:06:23;;;;;;;0.30;0.30;;;7.00;99.90;;;;;;5033957;28;20411;-69
2022/11/12 02:08:49;;;;;;;0.40;0.40;;;6.60;99.90;;;;;;5016205;28;20195;-69
2022/11/12 02:11:17;;;;;;;0.30;0.30;;;6.60;99.90;;;;;;5033860;28;20175;-69
2022/11/12 02:13:57;;;;;;;0.40;0.40;;;6.50;99.90;;;;;;5033536;28;20410;-68
2022/11/12 02:16:41;;;;;;;0.30;0.30;;;6.40;99.90;;;;;;5033708;28;20170;-70
2022/11/12 02:19:10;;;;;;;0.40;0.40;;;6.40;99.90;;;;;;5033746;28;20615;-69
2022/11/12 02:21:36;;;;;;;0.40;0.40;;;6.50;99.90;;;;;;5034046;28;20617;-67
2022/11/12 02:24:13;;;;;;;0.60;0.60;;;6.50;99.90;;;;;;5033424;28;20218;-67
2022/11/12 02:26:47;;;;;;;0.30;0.30;;;6.30;99.90;;;;;;5033597;28;20422;-69
2022/11/12 02:29:13;;;;;;;0.40;0.40;;;6.30;99.90;;;;;;5033600;28;20190;-68
2022/11/12 02:31:38;;;;;;;0.40;0.40;;;6.40;99.90;;;;;;5033884;28;20178;-69
2022/11/12 02:34:04;;;;;;;0.33;0.33;;;6.40;99.90;;;;;;5033313;28;20258;-67
2022/11/12 02:36:30;;;;;;;1.23;1.23;;;6.40;99.90;;;;;;5033707;28;20174;-68
2022/11/12 02:38:56;;;;;;;0.30;0.30;;;6.40;99.90;;;;;;5033240;28;20678;-69
2022/11/12 02:41:22;;;;;;;0.30;0.30;;;6.60;99.90;;;;;;5033156;28;20237;-67
2022/11/12 02:43:47;;;;;;;0.37;0.37;;;6.60;99.90;;;;;;5033431;28;20810;-68
2022/11/12 02:46:14;;;;;;;0.40;0.40;;;6.60;99.90;;;;;;5033649;28;20175;-68
2022/11/12 02:48:39;;;;;;;0.40;0.40;;;6.50;99.90;;;;;;5033670;28;20656;-68
2022/11/12 02:51:06;;;;;;;0.40;0.40;;;6.80;99.90;;;;;;5033921;28;20175;-69
2022/11/12 02:53:32;;;;;;;0.85;0.85;;;6.50;99.90;;;;;;5033076;28;20583;-69
2022/11/12 02:55:59;;;;;;;0.40;0.40;;;6.60;99.90;;;;;;5033765;28;20180;-69
2022/11/12 02:58:24;;;;;;;0.88;0.88;;;6.60;99.90;;;;;;5037241;28;20179;-69
2022/11/12 03:00:50;;;;;;;0.30;0.30;;;6.30;99.90;;;;;;5037495;28;20588;-69
2022/11/12 03:03:16;;;;;;;0.60;0.60;;;6.40;99.90;;;;;;5037141;28;20171;-68
2022/11/12 03:05:42;;;;;;;0.40;0.40;;;6.40;99.90;;;;;;5037531;28;20393;-69
2022/11/12 03:08:08;;;;;;;0.30;0.30;;;6.50;99.90;;;;;;5036929;28;20403;-69
2022/11/12 03:10:37;;;;;;;0.30;0.30;;;6.50;99.90;;;;;;5036962;28;20202;-68
2022/11/12 03:13:03;;;;;;;0.40;0.40;;;6.60;99.90;;;;;;5036889;28;20580;-69
2022/11/12 03:15:29;;;;;;;0.40;0.40;;;6.40;99.90;;;;;;5037107;28;20183;-68
2022/11/12 03:17:57;;;;;;;0.40;0.40;;;6.40;99.90;;;;;;5037241;28;20449;-68
2022/11/12 03:20:24;;;;;;;0.32;0.32;;;6.50;99.90;;;;;;5036527;28;20204;-70
2022/11/12 03:23:07;;;;;;;0.30;0.30;;;6.40;99.90;;;;;;5036912;28;20172;-67
2022/11/12 03:25:34;;;;;;;0.30;0.30;;;6.40;99.90;;;;;;5037061;28;20206;-69
2022/11/12 03:28:02;;;;;;;0.40;0.40;;;6.50;99.90;;;;;;5036763;28;20257;-69
2022/11/12 03:30:31;;;;;;;0.40;0.40;;;6.50;99.90;;;;;;5036991;28;20341;-69
2022/11/12 03:32:56;;;;;;;0.93;0.93;;;6.50;99.90;;;;;;5036223;28;20174;-69
2022/11/12 03:35:22;;;;;;;0.30;0.30;;;6.50;99.90;;;;;;5036538;28;20541;-69
2022/11/12 03:37:49;;;;;;;0.40;0.40;;;6.50;99.90;;;;;;5036252;28;20186;-69
2022/11/12 03:40:16;;;;;;;0.30;0.30;;;6.60;99.90;;;;;;5036484;28;20292;-69
2022/11/12 03:42:49;;;;;;;0.47;0.47;;;6.60;99.90;;;;;;5036534;28;20176;-68
2022/11/12 03:45:16;;;;;;;0.30;0.30;;;6.60;99.90;;;;;;5036186;28;20173;-69
2022/11/12 03:47:43;;;;;;;0.40;0.40;;;6.50;99.90;;;;;;5036214;28;20173;-69
2022/11/12 03:50:10;;;;;;;0.40;0.40;;;6.60;99.90;;;;;;5036244;28;20195;-70
2022/11/12 03:52:37;;;;;;;0.40;0.40;;;6.50;99.90;;;;;;5036329;28;20187;-69
2022/11/12 03:55:06;;;;;;;0.30;0.30;;;6.50;99.90;;;;;;5036403;28;20525;-68
2022/11/12 03:57:34;;;;;;;0.30;0.30;;;6.50;99.90;;;;;;5036391;28;20175;-67
2022/11/12 04:00:00;;;;;;;0.40;0.40;;;6.50;99.90;;;;;;5035895;28;20272;-67
2022/11/12 04:02:28;;;;;;;0.50;0.50;;;6.40;99.90;;;;;;5036052;28;20167;-68
2022/11/12 04:10:22;;;;;;;0.40;0.40;;;6.20;99.90;;;;;;5035953;28;20270;-68
2022/11/12 04:15:32;;;;;;;0.47;0.47;;;6.30;99.90;;;;;;5035908;28;20181;-68
2022/11/12 04:23:25;;;;;;;0.30;0.30;;;6.40;99.90;;;;;;5035452;28;20667;-69
2022/11/12 04:28:35;;;;;;;0.40;0.40;;;6.40;99.90;;;;;;5036042;28;20285;-69
2022/11/12 04:31:01;;;;;;;0.40;0.40;;;6.30;99.90;;;;;;5036063;28;20643;-70
2022/11/12 04:33:26;;;;;;;0.30;0.30;;;6.20;99.90;;;;;;5035272;28;20504;-68
2022/11/12 04:35:52;;;;;;;0.47;0.47;;;6.20;99.90;;;;;;5035576;28;20179;-68
2022/11/12 04:38:18;;;;;;;0.30;0.30;;;6.00;99.90;;;;;;5035039;28;20335;-69
2022/11/12 04:46:11;;;;;;;0.30;0.30;;;6.10;99.90;;;;;;5035288;28;20530;-68
2022/11/12 04:48:37;;;;;;;0.30;0.30;;;6.20;99.90;;;;;;5035401;28;20184;-69
2022/11/12 04:52:03;;;;;;;0.30;0.30;;;6.30;99.90;;;;;;5035590;28;20182;-67
2022/11/12 04:53:50;;;;;;;0.50;0.50;;;6.30;99.90;;;;;;5034609;28;20274;-69
2022/11/12 04:56:15;;;;;;;0.40;0.40;;;6.20;99.90;;;;;;5035401;28;20197;-69
2022/11/12 04:58:41;;;;;;;0.40;0.40;;;6.30;99.90;;;;;;5034901;28;20219;-68
2022/11/12 05:01:06;;;;;;;0.30;0.30;;;6.20;99.90;;;;;;5034902;28;20198;-68
2022/11/12 05:03:32;;;;;;;0.30;0.30;;;6.20;99.90;;;;;;5034567;28;20163;-67
2022/11/12 05:06:02;;;;;;;4.00;1.43;;;6.20;99.90;;;;;;5035181;28;20193;-69
2022/11/12 05:08:28;;;;;;;0.40;0.40;;;6.10;99.90;;;;;;5034321;28;20202;-67
2022/11/12 05:10:54;;;;;;;0.40;0.40;;;6.10;99.90;;;;;;5034596;28;20178;-68
2022/11/12 05:13:19;;;;;;;0.63;0.50;;;6.40;99.90;;;;;;5034149;28;20180;-69
2022/11/12 05:15:45;;;;;;;0.77;0.77;;;7.50;99.90;;;;;;5034814;28;20185;-68
2022/11/12 05:18:10;;;;;;;0.30;0.30;;;8.60;99.90;;;;;;5034833;28;20174;-69
2022/11/12 05:20:36;;;;;;;0.30;0.30;;;9.60;99.90;;;;;;5034207;28;20202;-70
2022/11/12 05:23:02;;;;;;;0.30;0.30;;;10.40;99.90;;;;;;5034759;28;20276;-71
2022/11/12 05:25:27;;;;;;;0.40;0.40;;;11.00;99.90;;;;;;5034424;28;20194;-70
2022/11/12 05:27:53;;;;;;;2.63;0.70;;;11.50;99.90;;;;;;5034711;28;20175;-70
2022/11/12 05:30:18;;;;;;;0.30;0.30;;;11.90;99.90;;;;;;5034536;28;20195;-69
2022/11/12 05:32:44;;;;;;;0.40;0.40;;;12.20;99.90;;;;;;5034400;28;20178;-71
2022/11/12 05:35:10;;;;;;;0.50;0.40;;;12.50;98.90;;;;;;5034654;28;20175;-70
2022/11/12 05:37:35;;;;;;;2.83;0.60;;;12.80;98.90;;;;;;5034508;28;20199;-70
2022/11/12 05:40:01;;;;;;;1.23;1.23;;;13.00;98.20;;;;;;5034029;28;20209;-69
2022/11/12 05:42:27;;;;;;;0.80;0.80;;;12.90;94.60;;;;;;5034128;28;20218;-70
2022/11/12 05:44:52;;;;;;;0.30;0.30;;;12.30;91.90;;;;;;5034085;28;20175;-68
2022/11/12 05:47:18;;;;;;;0.30;0.30;;;11.40;91.80;;;;;;5034321;28;20174;-69
2022/11/12 05:49:43;;;;;;;0.40;0.40;;;10.60;91.90;;;;;;5033818;28;20195;-68
2022/11/12 05:52:09;;;;;;;0.40;0.40;;;9.40;99.90;;;;;;5034513;28;20182;-69
2022/11/12 05:54:35;;;;;;;0.30;0.30;;;8.70;99.90;;;;;;5033749;28;20701;-67
2022/11/12 05:57:00;;;;;;;0.30;0.30;;;8.50;99.90;;;;;;5034053;28;20221;-68
2022/11/12 05:59:26;;;;;;;0.30;0.30;;;8.40;95.60;;;;;;5033948;28;20244;-69
2022/11/12 06:01:52;;;;;;;0.30;0.30;;;7.90;99.90;;;;;;5034065;28;20174;-69
2022/11/12 06:04:17;;;;;;;0.30;0.30;;;7.80;97.10;;;;;;5033460;28;20181;-68
2022/11/12 06:06:43;;;;;;;0.30;0.30;;;7.70;97.60;;;;;;5034281;28;20176;-69
2022/11/12 06:09:10;;;;;;;0.50;0.50;;;7.50;98.00;;;;;;5033550;28;20288;-70
2022/11/12 06:11:36;;;;;;;0.32;0.32;;;7.40;98.50;;;;;;5033719;28;20173;-70
2022/11/12 06:14:03;;;;;;;0.40;0.40;;;7.30;99.30;;;;;;5033748;28;20185;-68
2022/11/12 06:16:29;;;;;;;0.32;0.32;;;7.20;99.30;;;;;;5033855;28;20251;-68
2022/11/12 06:18:54;;;;;;;0.30;0.30;;;7.10;99.50;;;;;;5033541;28;20280;-69
2022/11/12 06:21:23;;;;;;;0.40;0.40;;;7.00;99.80;;;;;;5034026;28;20662;-66
2022/11/12 06:23:56;;;;;;;0.50;0.50;;;6.90;99.90;;;;;;5033570;28;20414;-69
2022/11/12 06:26:27;;;;;;;0.40;0.40;;;6.80;99.90;;;;;;5033415;28;20168;-69
2022/11/12 06:28:53;;;;;;;0.40;0.40;;;6.80;99.90;;;;;;5033398;28;20558;-68
2022/11/12 06:31:19;;;;;;;0.40;0.40;;;6.80;99.90;;;;;;5034475;28;20174;-69
2022/11/12 06:33:46;;;;;;;0.40;0.40;;;6.90;99.90;;;;;;5019831;28;20170;-68
2022/11/12 06:36:14;;;;;;;0.63;0.55;;;6.90;99.90;;;;;;5038133;28;20174;-70
2022/11/12 06:38:40;;;;;;;0.35;0.35;;;6.80;99.90;;;;;;5037029;28;20298;-70
2022/11/12 06:41:08;;;;;;;0.30;0.30;;;6.80;99.90;;;;;;5037503;28;20195;-68
2022/11/12 06:43:34;;;;;;;0.70;0.70;;;6.80;99.90;;;;;;5037327;28;20168;-70
2022/11/12 06:46:02;;;;;;;0.40;0.40;;;6.80;99.90;;;;;;5037805;28;20183;-70
2022/11/12 06:48:29;;;;;;;0.40;0.40;;;6.90;99.90;;;;;;5037857;28;20543;-68
2022/11/12 06:50:56;;;;;;;0.40;0.40;;;7.00;99.90;;;;;;5037183;28;20271;-70
2022/11/12 06:53:22;;;;;;;0.30;0.30;;;7.10;99.90;;;;;;5037000;28;20168;-69
2022/11/12 06:55:47;;;;;;;0.30;0.30;;;7.20;99.90;;;;;;5037492;28;20542;-70
2022/11/12 06:58:13;;;;;;;2.83;0.93;;;7.20;99.90;;;;;;5037446;28;20165;-70
2022/11/12 07:00:39;;;;;;;0.50;0.50;;;7.20;99.90;;;;;;5036988;28;20196;-69
2022/11/12 07:03:09;;;;;;;0.37;0.37;;;7.30;99.90;;;;;;5036987;28;20180;-69
2022/11/12 07:05:36;;;;;;;0.30;0.30;;;7.40;99.90;;;;;;5037243;28;20164;-69
2022/11/12 07:08:05;;;;;;;0.30;0.30;;;7.40;99.90;;;;;;5036946;28;20744;-68
2022/11/12 07:10:31;;;;;;;0.30;0.30;;;7.50;99.90;;;;;;5018965;28;20677;-69
2022/11/12 07:12:57;;;;;;;0.40;0.40;;;7.60;99.90;;;;;;5036679;28;20186;-68
2022/11/12 07:15:22;;;;;;;0.40;0.40;;;7.80;99.90;;;;;;5037046;28;20257;-69
2022/11/12 07:17:48;;;;;;;0.40;0.40;;;7.80;99.90;;;;;;5037382;28;20598;-69
2022/11/12 07:20:14;;;;;;;0.30;0.30;;;7.90;99.90;;;;;;5036696;28;20280;-68
2022/11/12 07:22:39;;;;;;;0.30;0.30;;;8.00;99.90;;;;;;5036692;28;20177;-70
2022/11/12 07:25:05;;;;;;;0.43;0.43;;;8.10;99.90;;;;;;5036511;28;20915;-70
2022/11/12 07:27:31;;;;;;;0.40;0.40;;;8.30;99.90;;;;;;5036895;28;20181;-69
2022/11/12 07:29:57;;;;;;;0.40;0.40;;;8.40;99.90;;;;;;5036896;28;20523;-72
2022/11/12 07:32:22;;;;;;;0.30;0.30;;;8.50;99.90;;;;;;5037179;28;20177;-67
2022/11/12 07:34:49;;;;;;;0.40;0.40;;;8.70;99.90;;;;;;5018078;28;20409;-71
2022/11/12 07:37:15;;;;;;;0.30;0.30;;;8.80;99.90;;;;;;5036025;28;20624;-71
2022/11/12 07:39:40;;;;;;;0.40;0.40;;;9.10;99.90;;;;;;5036509;28;20227;-73
2022/11/12 07:42:06;;;;;;;2.63;0.90;;;9.60;99.90;;;;;;5035916;28;20410;-70
2022/11/12 07:44:32;;;;;;;0.40;0.40;;;10.10;99.90;;;;;;5036135;28;20179;-71
2022/11/12 07:46:57;;;;;;;2.00;1.90;;;10.40;99.90;;;;;;5035701;28;20628;-72
2022/11/12 07:49:23;;;;;;;0.87;0.87;;;10.70;99.90;;;;;;5036132;28;20193;-71
2022/11/12 07:51:48;;;;;;;0.77;0.77;;;10.90;99.90;;;;;;5036517;28;20182;-70
2022/11/12 07:54:14;;;;;;;0.50;0.50;;;11.00;99.90;;;;;;5036127;28;20175;-71
2022/11/12 07:56:40;;;;;;;0.50;0.50;;;11.10;99.90;;;;;;5035751;28;20257;-70
2022/11/12 07:59:06;;;;;;;0.60;0.60;;;11.40;99.90;;;;;;5035865;28;20286;-72
2022/11/12 08:01:35;;;;;;;0.50;0.50;;;11.40;99.70;;;;;;5035691;28;20200;-73
2022/11/12 08:04:02;;;;;;;0.30;0.30;;;11.80;99.70;;;;;;5017668;28;20416;-72
2022/11/12 08:06:29;;;;;;;0.30;0.30;;;12.20;99.90;;;;;;5018376;28;20511;-71
2022/11/12 08:08:56;;;;;;;0.30;0.30;;;12.60;99.70;;;;;;5036134;28;20425;-72
2022/11/12 08:11:22;;;;;;;1.67;1.30;;;12.90;97.60;;;;;;5036354;28;20465;-72
2022/11/12 08:13:49;;;;;;;0.53;0.53;;;13.10;98.30;;;;;;5035969;28;20425;-74
2022/11/12 08:16:15;;;;;;;0.80;0.80;;;13.40;98.90;;;;;;5036179;28;20410;-71
2022/11/12 08:18:42;;;;;;;1.60;1.50;;;13.80;98.40;;;;;;5038046;28;20954;-71
2022/11/12 08:21:11;;;;;;;0.67;0.67;;;14.10;97.20;;;;;;5038576;28;20548;-72
2022/11/12 08:23:36;;;;;;;0.60;0.60;;;14.40;95.90;;;;;;5037482;28;20412;-73
2022/11/12 08:26:05;;;;;;;0.60;0.60;;;14.60;95.50;;;;;;5036471;28;20407;-72
2022/11/12 08:28:32;;;;;;;0.40;0.40;;;15.10;97.60;;;;;;5036369;28;20179;-69
2022/11/12 08:31:03;;;;;;;1.23;0.63;;;15.00;94.10;;;;;;5035254;28;20413;-69
2022/11/12 08:33:30;;;;;;;0.70;0.70;;;15.30;93.70;;;;;;5036019;28;20402;-69
2022/11/12 08:35:55;;;;;;;2.00;0.80;;;15.40;93.00;;;;;;5035018;28;20708;-70
2022/11/12 08:38:21;;;;;;;1.83;1.13;;;15.50;92.30;;;;;;5035145;28;20444;-72
2022/11/12 08:40:47;;;;;;;2.23;2.03;;;15.40;91.40;;;;;;5034935;28;20202;-72
2022/11/12 08:43:13;;;;;;;2.50;1.40;;;15.50;90.80;;;;;;5035511;28;20179;-74
2022/11/12 08:45:40;;;;;;;1.63;1.33;;;15.70;90.80;;;;;;5035234;28;20202;-73
2022/11/12 08:48:13;;;;;;;1.80;1.40;;;15.80;90.10;;;;;;5035475;28;20413;-71
2022/11/12 08:50:38;;;;;;;0.73;0.73;;;16.00;90.10;;;;;;5035461;28;20477;-71
2022/11/12 08:53:10;;;;;;;0.77;0.77;;;16.40;90.60;;;;;;5034619;28;20413;-70
2022/11/12 08:55:36;;;;;;;0.90;0.90;;;16.90;89.20;;;;;;5035007;28;20189;-70
2022/11/12 08:58:03;;;;;;;1.93;1.83;;;17.50;87.90;;;;;;5034881;28;20416;-71
2022/11/12 09:00:30;;;;;;;1.63;1.40;;;18.00;85.60;;;;;;5034779;28;20284;-72
2022/11/12 09:02:59;;;;;;;1.30;1.20;;;18.40;83.40;;;;;;5034561;28;20416;-71
2022/11/12 09:05:25;;;;;;;1.40;1.30;;;18.70;81.50;;;;;;5034831;28;20459;-69
2022/11/12 09:08:03;;;;;;;0.50;0.50;;;19.00;80.20;;;;;;5035294;28;20772;-70
2022/11/12 09:10:29;;;;;;;1.50;1.27;;;19.30;79.30;;;;;;5034112;28;20233;-70
2022/11/12 09:12:55;;;;;;;0.57;0.57;;;19.40;79.00;;;;;;5034248;28;20449;-70
2022/11/12 09:15:22;;;;;;;1.27;1.17;;;19.40;78.50;;;;;;5033914;28;20433;-70
2022/11/12 09:18:03;;;;;;;1.33;1.23;;;19.30;79.10;;;;;;5034889;28;20409;-68
2022/11/12 09:20:29;;;;;;;1.80;1.00;;;19.20;79.00;;;;;;5034007;28;20508;-68
2022/11/12 09:23:04;;;;;;;1.20;1.10;;;19.20;79.90;;;;;;5033568;28;20489;-69
2022/11/12 09:25:30;;;;;;;1.27;0.83;;;19.40;87.60;;;;;;5033872;28;20407;-70
2022/11/12 09:27:56;;;;;;;1.17;1.07;;;19.70;80.00;;;;;;5034675;28;20434;-69
2022/11/12 09:30:22;;;;;;;1.73;1.37;;;19.90;79.60;;;;;;5034053;28;20461;-68
2022/11/12 09:32:48;;;;;;;1.83;1.73;;;20.00;78.60;;;;;;5034549;28;20632;-71
2022/11/12 09:35:14;;;;;;;2.97;1.77;;;19.90;77.60;;;;;;5034850;28;20495;-70
2022/11/12 09:37:40;;;;;;;1.20;1.10;;;19.70;77.30;;;;;;5034374;28;20211;-70
2022/11/12 09:40:09;;;;;;;1.80;1.43;;;19.40;76.70;;;;;;5034187;28;20802;-70
2022/11/12 09:42:36;;;;;;;1.03;1.03;;;19.20;77.70;;;;;;5016678;28;20179;-70
2022/11/12 09:45:18;;;;;;;0.80;0.80;;;19.00;79.00;;;;;;5033371;28;20413;-70
2022/11/12 09:47:51;;;;;;;1.87;1.77;;;19.00;80.20;;;;;;5016146;28;20425;-70
2022/11/12 09:50:28;;;;;;;0.70;0.70;;;19.10;80.50;;;;;;5033907;28;20957;-70
2022/11/12 09:53:07;;;;;;;1.57;1.47;;;19.40;80.30;;;;;;5016092;28;20421;-70
2022/11/12 09:55:38;;;;;;;1.03;1.03;;;19.90;80.10;;;;;;5033683;28;20442;-70
2022/11/12 09:58:15;;;;;;;2.50;2.37;;;20.40;80.70;;;;;;5032524;28;20407;-70
2022/11/12 10:01:02;;;;;;;0.50;0.50;;;21.00;76.30;;;;;;5033225;28;20495;-70
2022/11/12 10:03:45;;;;;;;1.23;0.90;;;21.50;76.20;;;;;;5033125;28;20985;-70
2022/11/12 10:06:18;;;;;;;0.70;0.70;;;21.90;76.10;;;;;;5034309;28;20437;-70
2022/11/12 10:08:54;;;;;;;0.60;0.60;;;22.20;74.80;;;;;;5033065;28;20435;-70
2022/11/12 10:14:31;;;;;;;1.00;1.00;;;22.70;73.10;;;;;;5032426;28;20382;-71
2022/11/12 10:17:03;;;;;;;1.20;1.10;;;22.70;72.50;;;;;;5033902;28;20492;-71
2022/11/12 10:19:52;;;;;;;0.83;0.83;;;22.60;71.90;;;;;;5033271;28;20521;-71
2022/11/12 10:22:21;;;;;;;0.63;0.63;;;22.50;73.20;;;;;;5033880;28;20830;-71
2022/11/12 10:24:47;;;;;;;1.13;1.13;;;22.40;72.40;;;;;;5033788;28;20405;-71
2022/11/12 10:27:26;;;;;;;0.93;0.87;;;22.20;71.00;;;;;;5034032;28;20402;-70
2022/11/12 10:30:02;;;;;;;0.50;0.50;;;22.00;71.90;;;;;;5033178;28;20425;-70
2022/11/12 10:32:28;;;;;;;1.03;0.50;;;21.80;73.00;;;;;;5033047;28;20900;-70
2022/11/12 10:34:54;;;;;;;0.60;0.60;;;21.50;73.40;;;;;;5031628;28;20428;-71
2022/11/12 10:37:34;;;;;;;0.63;0.63;;;21.20;74.20;;;;;;5033304;28;20174;-70
2022/11/12 10:40:20;;;;;;;1.33;1.23;;;21.00;74.80;;;;;;5033270;28;20571;-72
2022/11/12 10:43:04;;;;;;;0.43;0.43;;;21.00;75.50;;;;;;5033185;28;20759;-69
2022/11/12 10:45:31;;;;;;;2.87;1.67;;;21.10;76.60;;;;;;5015821;28;20478;-70
2022/11/12 10:47:58;;;;;;;0.60;0.60;;;21.00;75.70;;;;;;5033315;28;20582;-71
2022/11/12 10:50:41;;;;;;;3.17;0.60;;;21.00;75.80;;;;;;5033107;28;20496;-69
2022/11/12 10:53:10;;;;;;;4.10;1.40;;;20.90;75.10;;;;;;5033213;28;20424;-69
2022/11/12 10:55:53;;;;;;;1.47;1.37;;;20.60;77.90;;;;;;5033534;28;20407;-70
2022/11/12 10:58:19;;;;;;;0.40;0.40;;;20.00;91.20;;;;;;5033770;28;20962;-69
2022/11/12 11:01:01;;;;;;;0.70;0.60;;;20.00;77.60;;;;;;5033753;28;20540;-70
2022/11/12 11:03:36;;;;;;;0.70;0.70;;;19.80;76.90;;;;;;5033186;28;20434;-69
2022/11/12 11:06:16;;;;;;;0.73;0.73;;;19.70;78.80;;;;;;5032960;28;20463;-71
2022/11/12 11:08:43;;;;;;;0.40;0.40;;;19.40;76.90;;;;;;5033583;28;20528;-71
2022/11/12 11:11:15;;;;;;;0.40;0.40;;;19.30;78.90;;;;;;5032869;28;20937;-71
2022/11/12 11:13:42;;;;;;;0.60;0.60;;;19.10;75.20;;;;;;5033178;28;20409;-70
2022/11/12 11:16:19;;;;;;;0.40;0.40;;;19.00;75.70;;;;;;5033306;28;20542;-72
2022/11/12 11:18:54;;;;;;;0.30;0.30;;;18.90;77.60;;;;;;5036577;28;20443;-71
2022/11/12 11:21:47;;;;;;;0.40;0.40;;;18.90;77.00;;;;;;5037293;28;20447;-72
2022/11/12 11:24:27;;;;;;;0.30;0.30;;;18.70;69.50;;;;;;5035345;28;20805;-70
2022/11/12 11:27:11;;;;;;;0.30;0.30;;;18.60;76.20;;;;;;5036441;28;20489;-71
2022/11/12 11:29:47;;;;;;;0.30;0.30;;;18.50;72.70;;;;;;5034954;28;20889;-72
2022/11/12 11:32:33;;;;;;;0.40;0.40;;;18.40;76.10;;;;;;5036930;28;20443;-72
2022/11/12 11:35:14;;;;;;;0.40;0.40;;;18.60;72.50;;;;;;5036334;28;20418;-72
2022/11/12 11:38:00;;;;;;;0.30;0.30;;;18.80;74.00;;;;;;5036696;28;20433;-72
2022/11/12 11:40:32;;;;;;;0.30;0.30;;;18.90;77.80;;;;;;5036449;28;20550;-71
2022/11/12 11:43:35;;;;;;;0.40;0.40;;;18.80;75.30;;;;;;5036441;28;20404;-73
2022/11/12 11:46:19;;;;;;;0.40;0.40;;;18.80;73.40;;;;;;5036513;28;20461;-72
2022/11/12 11:48:54;;;;;;;0.30;0.30;;;18.80;73.90;;;;;;5036749;28;20504;-73
2022/11/12 11:51:58;;;;;;;0.30;0.30;;;18.70;72.60;;;;;;5036370;28;20414;-71
2022/11/12 11:55:02;;;;;;;0.40;0.40;;;18.50;74.50;;;;;;5035126;28;20424;-71
2022/11/12 11:57:30;;;;;;;0.40;0.40;;;18.60;72.70;;;;;;5036090;28;20407;-72
2022/11/12 12:00:19;;;;;;;0.40;0.40;;;18.70;74.80;;;;;;5035829;28;20489;-72
2022/11/12 12:02:48;;;;;;;0.40;0.40;;;18.60;73.70;;;;;;5018092;28;20820;-70
2022/11/12 12:05:38;;;;;;;0.30;0.30;;;18.60;74.60;;;;;;5035503;28;20447;-72
2022/11/12 12:08:34;;;;;;;0.30;0.30;;;18.70;74.20;;;;;;5035617;28;20416;-73
2022/11/12 12:11:06;;;;;;;0.40;0.40;;;18.80;74.70;;;;;;5035645;28;20402;-72
2022/11/12 12:14:12;;;;;;;0.30;0.30;;;18.90;73.40;;;;;;5035790;28;20414;-72
2022/11/12 12:16:49;;;;;;;0.67;0.67;;;18.90;71.40;;;;;;5035351;28;20403;-72
2022/11/12 12:19:44;;;;;;;0.30;0.30;;;18.80;72.30;;;;;;5034924;28;20432;-72
2022/11/12 12:22:17;;;;;;;0.50;0.50;;;18.70;76.00;;;;;;5006864;28;20444;-71
2022/11/12 12:24:48;;;;;;;0.37;0.37;;;18.70;75.60;;;;;;5035587;28;20396;-71
2022/11/12 12:27:20;;;;;;;0.40;0.40;;;18.60;72.70;;;;;;5036093;28;20415;-73
2022/11/12 12:29:51;;;;;;;0.40;0.40;;;18.60;71.60;;;;;;5034219;28;20427;-73
2022/11/12 12:33:01;;;;;;;0.30;0.30;;;18.50;72.50;;;;;;5035728;28;20409;-73
2022/11/12 12:35:45;;;;;;;0.30;0.30;;;18.50;75.20;;;;;;5021512;28;20734;-71
2022/11/12 12:38:39;;;;;;;0.40;0.40;;;18.30;72.70;;;;;;5035399;28;20434;-72
2022/11/12 12:41:26;;;;;;;0.50;0.50;;;18.30;72.60;;;;;;5021117;28;20951;-73
2022/11/12 12:43:58;;;;;;;0.40;0.40;;;18.20;71.90;;;;;;5017282;28;20408;-73
2022/11/12 12:46:27;;;;;;;0.40;0.40;;;18.10;73.00;;;;;;5035673;28;20472;-72
2022/11/12 12:48:55;;;;;;;0.90;0.40;;;18.10;75.30;;;;;;5035211;28;20891;-73
2022/11/12 12:51:21;;;;;;;0.50;0.50;;;18.00;76.20;;;;;;5035097;28;20500;-72
2022/11/12 12:53:47;;;;;;;0.40;0.40;;;18.00;78.80;;;;;;5035119;28;20406;-74
2022/11/12 12:56:12;;;;;;;0.30;0.30;;;17.90;79.20;;;;;;5035310;28;20400;-73
2022/11/12 12:58:47;;;;;;;0.40;0.40;;;17.90;79.60;;;;;;5035078;28;20250;-73
2022/11/12 13:01:21;;;;;;;0.40;0.40;;;18.00;78.60;;;;;;5035305;28;20194;-72
2022/11/12 13:03:59;;;;;;;0.50;0.50;;;17.90;79.00;;;;;;5034705;28;20402;-73
2022/11/12 13:06:26;;;;;;;0.40;0.40;;;17.70;79.50;;;;;;5035109;28;20414;-72
2022/11/12 13:09:19;;;;;;;0.40;0.40;;;17.60;80.50;;;;;;5034956;28;20485;-73
2022/11/12 13:14:34;;;;;;;0.40;0.40;;;17.50;77.50;;;;;;5034850;28;20413;-71
2022/11/12 13:17:07;;;;;;;0.30;0.30;;;17.30;80.50;;;;;;5017022;28;20826;-69
2022/11/12 13:19:33;;;;;;;0.97;0.87;;;17.20;79.50;;;;;;5017058;28;20933;-71
2022/11/12 13:22:17;;;;;;;0.50;0.50;;;17.00;77.80;;;;;;5035805;28;20500;-72
2022/11/12 13:25:07;;;;;;;0.70;0.70;;;16.90;77.90;;;;;;5034275;28;20399;-68
2022/11/12 13:27:44;;;;;;;0.50;0.50;;;16.90;77.90;;;;;;5034666;28;20712;-68
2022/11/12 13:30:13;;;;;;;0.40;0.40;;;17.00;79.50;;;;;;5034917;28;20450;-70
2022/11/12 13:32:47;;;;;;;0.40;0.40;;;17.10;79.10;;;;;;5034678;28;20441;-69
2022/11/12 13:35:16;;;;;;;0.60;0.40;;;17.20;80.30;;;;;;5034323;28;20758;-70